Time;durP1;ratioP1;P1;durP2;ratioP2;P2;SDS_P1;SDS_P2;PMS_P1;PMS_P2;Temp;Humidity;BMP_temperature;BMP_pressure;BME280_temperature;BME280_humidity;BME280_pressure;Samples;Min_cycle;Max_cycle;Signal;HPM_P1;HPM_P2
2021/04/27 00:00:14;;;;;;;11.88;4.07;;;11.80;55.40;;;;;;5074722;28;20480;-69
2021/04/27 00:02:41;;;;;;;12.52;4.00;;;11.80;55.30;;;;;;5074191;28;20017;-68
2021/04/27 00:05:09;;;;;;;12.18;4.05;;;11.80;55.40;;;;;;5072924;28;20072;-69
2021/04/27 00:07:35;;;;;;;11.95;4.15;;;11.80;55.50;;;;;;5073182;28;20020;-68
2021/04/27 00:10:03;;;;;;;13.07;4.50;;;11.70;55.70;;;;;;5074281;28;20488;-68
2021/04/27 00:12:29;;;;;;;13.38;4.63;;;11.70;55.70;;;;;;5074216;28;20476;-68
2021/04/27 00:14:55;;;;;;;12.77;4.25;;;11.70;55.70;;;;;;5074368;28;20456;-68
2021/04/27 00:17:21;;;;;;;11.23;3.97;;;11.70;55.70;;;;;;5072464;28;20053;-68
2021/04/27 00:19:47;;;;;;;14.70;4.90;;;11.60;55.70;;;;;;5074118;28;20048;-68
2021/04/27 00:22:14;;;;;;;12.13;4.40;;;11.60;55.90;;;;;;5074178;28;20049;-68
2021/04/27 00:24:40;;;;;;;12.80;4.63;;;11.60;56.00;;;;;;5072534;28;20063;-68
2021/04/27 00:27:06;;;;;;;13.95;4.82;;;11.60;55.90;;;;;;5073761;28;20024;-68
2021/04/27 00:29:32;;;;;;;12.30;4.25;;;11.60;56.00;;;;;;5074066;28;20059;-68
2021/04/27 00:31:58;;;;;;;12.70;4.38;;;11.50;56.10;;;;;;5073814;28;20063;-68
2021/04/27 00:34:24;;;;;;;12.68;4.18;;;11.50;56.30;;;;;;5075466;28;20063;-68
2021/04/27 00:36:51;;;;;;;13.98;5.00;;;11.50;56.20;;;;;;5072724;28;20059;-68
2021/04/27 00:39:17;;;;;;;11.93;4.25;;;11.40;56.50;;;;;;5065646;28;20044;-68
2021/04/27 00:41:43;;;;;;;10.10;4.00;;;11.40;56.40;;;;;;5073496;28;20551;-68
2021/04/27 00:44:09;;;;;;;13.15;4.25;;;11.40;56.40;;;;;;5073734;28;20044;-68
2021/04/27 00:46:36;;;;;;;12.52;4.13;;;11.30;56.40;;;;;;5073543;28;20046;-68
2021/04/27 00:49:02;;;;;;;12.25;4.60;;;11.40;56.50;;;;;;5073649;28;20020;-68
2021/04/27 00:51:28;;;;;;;11.93;4.30;;;11.30;56.50;;;;;;5073804;28;20044;-68
2021/04/27 00:53:54;;;;;;;10.80;4.00;;;11.40;56.50;;;;;;5066299;28;20068;-68
2021/04/27 00:56:22;;;;;;;12.98;4.55;;;11.30;56.40;;;;;;5071873;28;20066;-68
2021/04/27 00:58:49;;;;;;;11.05;4.00;;;11.40;56.70;;;;;;5073219;28;20063;-68
2021/04/27 01:01:15;;;;;;;12.55;4.43;;;11.30;56.60;;;;;;5073739;28;20055;-68
2021/04/27 01:03:41;;;;;;;11.30;4.57;;;11.30;56.70;;;;;;5073401;28;20437;-68
2021/04/27 01:06:08;;;;;;;13.00;4.05;;;11.30;56.80;;;;;;5072128;28;20075;-67
2021/04/27 01:08:47;;;;;;;13.50;4.80;;;11.20;56.70;;;;;;5086555;28;20048;-68
2021/04/27 01:11:36;;;;;;;13.02;4.20;;;11.20;58.00;;;;;;5073198;28;20060;-68
2021/04/27 01:14:03;;;;;;;13.32;4.88;;;11.20;57.00;;;;;;5077109;28;20047;-68
2021/04/27 01:16:31;;;;;;;15.23;4.80;;;11.20;57.00;;;;;;5079993;28;20072;-68
2021/04/27 01:18:58;;;;;;;12.38;4.43;;;11.20;56.90;;;;;;5072976;28;20079;-68
2021/04/27 01:21:27;;;;;;;13.98;4.53;;;11.10;57.00;;;;;;5072031;28;20055;-68
2021/04/27 01:23:59;;;;;;;12.20;4.75;;;11.20;57.10;;;;;;5072712;28;20055;-68
2021/04/27 01:27:02;;;;;;;12.57;5.00;;;11.20;57.10;;;;;;5077926;28;20503;-68
2021/04/27 01:29:32;;;;;;;12.80;4.90;;;11.20;57.10;;;;;;5072975;28;20056;-68
2021/04/27 01:32:01;;;;;;;11.13;4.32;;;11.10;57.00;;;;;;5073151;28;20048;-68
2021/04/27 01:34:32;;;;;;;13.15;4.57;;;11.10;57.00;;;;;;5072887;28;20472;-68
2021/04/27 01:36:59;;;;;;;13.82;4.30;;;11.10;58.10;;;;;;5072901;28;20063;-68
2021/04/27 01:39:27;;;;;;;12.82;4.60;;;11.10;57.10;;;;;;5064375;28;20055;-68
2021/04/27 01:41:54;;;;;;;11.85;4.80;;;11.10;57.20;;;;;;5072754;28;20056;-68
2021/04/27 01:44:21;;;;;;;15.60;6.55;;;11.10;57.30;;;;;;5083186;28;20044;-68
2021/04/27 01:46:48;;;;;;;14.00;5.05;;;11.00;57.40;;;;;;5062558;28;20075;-68
2021/04/27 01:49:17;;;;;;;11.65;4.53;;;11.00;57.30;;;;;;5068425;28;20032;-68
2021/04/27 01:51:44;;;;;;;12.70;4.95;;;11.00;57.40;;;;;;5072260;28;20051;-69
2021/04/27 01:54:11;;;;;;;12.77;4.75;;;11.00;57.40;;;;;;5063074;28;20055;-68
2021/04/27 01:56:37;;;;;;;13.93;5.47;;;11.00;57.40;;;;;;5072254;28;20017;-68
2021/04/27 01:59:04;;;;;;;13.38;4.85;;;11.00;57.50;;;;;;5072520;28;20072;-68
2021/04/27 02:01:31;;;;;;;12.95;4.80;;;11.00;57.40;;;;;;5072226;28;20044;-68
2021/04/27 02:03:57;;;;;;;11.13;4.80;;;11.00;57.40;;;;;;5072059;28;20655;-68
2021/04/27 02:06:24;;;;;;;11.95;4.93;;;11.00;58.40;;;;;;5071957;28;20044;-68
2021/04/27 02:09:01;;;;;;;14.43;5.38;;;11.00;57.40;;;;;;5071915;28;20032;-68
2021/04/27 02:11:32;;;;;;;17.08;5.53;;;10.90;57.50;;;;;;5072135;28;20064;-68
2021/04/27 02:14:00;;;;;;;13.10;5.32;;;10.90;57.40;;;;;;5071864;28;20226;-68
2021/04/27 02:16:32;;;;;;;14.05;4.97;;;10.90;57.40;;;;;;5072055;28;20064;-68
2021/04/27 02:19:01;;;;;;;11.10;4.97;;;10.90;57.40;;;;;;5071602;28;20024;-68
2021/04/27 02:21:27;;;;;;;17.25;5.85;;;10.90;58.40;;;;;;5070943;28;20079;-68
2021/04/27 02:23:55;;;;;;;13.05;5.10;;;10.90;57.70;;;;;;5071200;28;20074;-68
2021/04/27 02:26:22;;;;;;;13.10;4.97;;;10.80;57.60;;;;;;5072033;28;20048;-68
2021/04/27 02:28:50;;;;;;;13.93;5.10;;;10.80;57.60;;;;;;5071355;28;20520;-68
2021/04/27 02:31:16;;;;;;;12.63;5.45;;;10.70;57.60;;;;;;5071854;28;20024;-68
2021/04/27 02:33:44;;;;;;;12.65;4.93;;;10.70;57.80;;;;;;5071505;28;20059;-67
2021/04/27 02:36:11;;;;;;;12.60;5.35;;;10.70;57.90;;;;;;5071763;28;20063;-67
2021/04/27 02:38:37;;;;;;;12.90;5.57;;;10.60;57.90;;;;;;5064744;28;20476;-68
2021/04/27 02:41:04;;;;;;;12.57;5.60;;;10.60;58.00;;;;;;5069988;28;20048;-68
2021/04/27 02:43:30;;;;;;;13.80;5.95;;;10.60;58.00;;;;;;5071656;28;20056;-69
2021/04/27 02:45:56;;;;;;;15.68;5.50;;;10.60;58.10;;;;;;5078206;28;20060;-68
2021/04/27 02:48:25;;;;;;;15.45;5.75;;;10.60;58.20;;;;;;5070311;28;20121;-69
2021/04/27 02:50:57;;;;;;;15.80;6.82;;;10.50;58.20;;;;;;5071671;28;20052;-68
2021/04/27 02:53:24;;;;;;;15.18;6.80;;;10.40;58.50;;;;;;5067982;28;20025;-68
2021/04/27 02:55:50;;;;;;;17.20;6.88;;;10.40;58.80;;;;;;5061474;28;20075;-70
2021/04/27 02:58:18;;;;;;;18.85;7.78;;;10.40;59.10;;;;;;5064852;28;20068;-68
2021/04/27 03:00:45;;;;;;;15.02;6.15;;;10.30;59.00;;;;;;5071251;28;20530;-68
2021/04/27 03:03:11;;;;;;;18.58;7.70;;;10.30;59.00;;;;;;5057287;28;20052;-68
2021/04/27 03:05:37;;;;;;;14.05;6.65;;;10.30;60.50;;;;;;5063780;28;20079;-68
2021/04/27 03:08:05;;;;;;;17.52;7.63;;;10.20;59.60;;;;;;5059529;28;20060;-68
2021/04/27 03:10:31;;;;;;;12.93;6.38;;;10.20;59.70;;;;;;5051103;28;20048;-67
2021/04/27 03:12:57;;;;;;;14.10;6.18;;;10.20;59.60;;;;;;5060558;28;20056;-67
2021/04/27 03:15:24;;;;;;;13.52;6.40;;;10.20;59.40;;;;;;5069600;28;20052;-68
2021/04/27 03:17:50;;;;;;;15.85;7.13;;;10.20;59.70;;;;;;5057144;28;20067;-67
2021/04/27 03:20:16;;;;;;;15.70;7.05;;;10.10;59.70;;;;;;5070985;28;20063;-68
2021/04/27 03:22:42;;;;;;;18.48;7.13;;;10.10;60.10;;;;;;5070587;28;20086;-68
2021/04/27 03:25:10;;;;;;;13.57;6.38;;;10.10;60.60;;;;;;5070893;28;20059;-68
2021/04/27 03:27:37;;;;;;;15.95;6.25;;;10.00;60.20;;;;;;5069709;28;20094;-67
2021/04/27 03:30:06;;;;;;;13.43;5.57;;;10.00;60.40;;;;;;5068974;28;20068;-68
2021/04/27 03:32:32;;;;;;;12.63;5.72;;;10.00;60.40;;;;;;5068765;28;20068;-67
2021/04/27 03:34:59;;;;;;;11.73;5.22;;;9.90;60.50;;;;;;5063734;28;20025;-68
2021/04/27 03:37:25;;;;;;;13.77;5.38;;;9.90;60.60;;;;;;5063703;28;20486;-67
2021/04/27 03:39:51;;;;;;;12.60;5.78;;;9.90;60.70;;;;;;5059933;28;20542;-67
2021/04/27 03:42:17;;;;;;;15.90;5.72;;;10.00;60.80;;;;;;5075947;28;20047;-68
2021/04/27 03:44:44;;;;;;;13.60;5.07;;;9.90;60.80;;;;;;5072311;28;20449;-68
2021/04/27 03:47:10;;;;;;;13.27;6.03;;;10.00;60.80;;;;;;5069481;28;20056;-67
2021/04/27 03:49:36;;;;;;;16.92;6.82;;;10.00;61.00;;;;;;5070693;28;20025;-68
2021/04/27 03:52:03;;;;;;;15.13;6.70;;;9.90;61.60;;;;;;5069014;28;20541;-68
2021/04/27 03:54:29;;;;;;;15.30;5.65;;;9.90;61.50;;;;;;5058760;28;20074;-68
2021/04/27 03:56:55;;;;;;;13.45;6.07;;;9.90;61.30;;;;;;5071754;28;20056;-68
2021/04/27 03:59:21;;;;;;;15.20;6.63;;;9.90;61.60;;;;;;5070765;28;20056;-68
2021/04/27 04:01:47;;;;;;;13.23;6.40;;;9.90;61.70;;;;;;5070480;28;20049;-68
2021/04/27 04:04:13;;;;;;;13.43;5.70;;;9.90;61.70;;;;;;5073023;28;20499;-67
2021/04/27 04:06:39;;;;;;;13.00;5.20;;;9.80;61.60;;;;;;5069950;28;20454;-68
2021/04/27 04:09:08;;;;;;;14.23;6.07;;;9.80;61.50;;;;;;5070445;28;20457;-67
2021/04/27 04:11:35;;;;;;;15.40;5.22;;;9.80;61.50;;;;;;5070679;28;20446;-67
2021/04/27 04:14:02;;;;;;;15.82;6.30;;;9.80;61.60;;;;;;5070223;28;20054;-68
2021/04/27 04:16:29;;;;;;;14.85;5.55;;;9.80;61.60;;;;;;5069269;28;20076;-68
2021/04/27 04:18:55;;;;;;;15.15;5.85;;;9.80;61.60;;;;;;5070109;28;20048;-68
2021/04/27 04:21:23;;;;;;;16.58;6.13;;;9.80;61.50;;;;;;5070410;28;20052;-68
2021/04/27 04:23:50;;;;;;;13.35;5.68;;;9.90;61.50;;;;;;5070233;28;20056;-67
2021/04/27 04:26:17;;;;;;;15.18;6.20;;;9.80;61.50;;;;;;5070582;28;20455;-67
2021/04/27 04:28:43;;;;;;;14.43;5.93;;;9.80;61.50;;;;;;5070229;28;20028;-68
2021/04/27 04:31:09;;;;;;;14.32;5.65;;;9.90;61.60;;;;;;5070244;28;20052;-67
2021/04/27 04:33:36;;;;;;;13.98;6.15;;;9.80;61.50;;;;;;5070301;28;20056;-67
2021/04/27 04:36:02;;;;;;;14.43;6.72;;;9.80;61.40;;;;;;5069780;28;20059;-67
2021/04/27 04:38:28;;;;;;;16.15;6.95;;;9.80;61.70;;;;;;5064958;28;20056;-68
2021/04/27 04:40:54;;;;;;;16.38;6.90;;;9.80;61.90;;;;;;5068688;28;20503;-67
2021/04/27 04:43:20;;;;;;;15.20;6.57;;;9.80;61.70;;;;;;5073747;28;20079;-67
2021/04/27 04:45:47;;;;;;;13.40;6.15;;;9.80;61.80;;;;;;5073631;28;20461;-67
2021/04/27 04:48:13;;;;;;;15.10;6.10;;;9.80;61.70;;;;;;5072265;28;20064;-67
2021/04/27 04:50:40;;;;;;;13.10;5.63;;;9.80;61.60;;;;;;5072109;28;20062;-67
2021/04/27 04:53:06;;;;;;;13.93;5.80;;;9.80;61.60;;;;;;5072479;28;20067;-70
2021/04/27 04:55:34;;;;;;;13.40;5.85;;;9.80;61.60;;;;;;5066204;28;20460;-67
2021/04/27 04:58:00;;;;;;;14.05;5.40;;;9.80;61.60;;;;;;5073134;28;20025;-68
2021/04/27 05:00:26;;;;;;;12.40;5.53;;;9.70;61.60;;;;;;5071900;28;20131;-67
2021/04/27 05:02:52;;;;;;;13.65;5.75;;;9.70;61.60;;;;;;5073275;28;20063;-67
2021/04/27 05:05:19;;;;;;;14.88;5.85;;;9.70;61.70;;;;;;5076049;28;20075;-68
2021/04/27 05:07:47;;;;;;;13.10;6.07;;;9.70;61.70;;;;;;5073232;28;20056;-67
2021/04/27 05:10:15;;;;;;;19.75;7.97;;;9.70;61.80;;;;;;5072232;28;20055;-69
2021/04/27 05:12:42;;;;;;;18.20;7.50;;;9.70;62.20;;;;;;5071003;28;20507;-68
2021/04/27 05:15:09;;;;;;;16.75;8.10;;;9.70;62.30;;;;;;5071712;28;20071;-72
2021/04/27 05:17:36;;;;;;;16.95;8.18;;;9.70;62.50;;;;;;5073193;28;20045;-74
2021/04/27 05:20:03;;;;;;;17.17;7.65;;;9.70;62.70;;;;;;5072689;28;20048;-69
2021/04/27 05:22:29;;;;;;;15.68;8.40;;;9.70;62.40;;;;;;5061843;28;20070;-69
2021/04/27 05:24:56;;;;;;;17.08;7.05;;;9.60;62.80;;;;;;5071994;28;20056;-70
2021/04/27 05:27:23;;;;;;;14.07;6.80;;;9.60;62.50;;;;;;5070317;28;20499;-69
2021/04/27 05:29:50;;;;;;;18.77;7.97;;;9.60;62.50;;;;;;5073171;28;20029;-70
2021/04/27 05:32:16;;;;;;;16.38;7.32;;;9.60;62.80;;;;;;5071102;28;20055;-69
2021/04/27 05:34:42;;;;;;;14.05;6.70;;;9.70;62.50;;;;;;5072098;28;20028;-69
2021/04/27 05:37:08;;;;;;;13.65;6.25;;;9.70;62.20;;;;;;5071437;28;20448;-69
2021/04/27 05:39:34;;;;;;;17.90;7.70;;;9.70;62.20;;;;;;5061450;28;20456;-69
2021/04/27 05:42:01;;;;;;;16.63;7.40;;;9.80;62.20;;;;;;5056105;28;20347;-69
2021/04/27 05:44:27;;;;;;;12.82;6.30;;;9.80;62.10;;;;;;5042729;28;20468;-69
2021/04/27 05:46:53;;;;;;;15.90;7.72;;;9.80;62.10;;;;;;5070413;28;20058;-69
2021/04/27 05:49:20;;;;;;;16.20;7.43;;;9.80;62.20;;;;;;5068959;28;20060;-69
2021/04/27 05:51:46;;;;;;;15.57;7.88;;;9.80;62.20;;;;;;5071763;28;20055;-69
2021/04/27 05:54:12;;;;;;;15.10;7.22;;;9.80;62.40;;;;;;5060415;28;20444;-68
2021/04/27 05:56:38;;;;;;;20.98;10.25;;;9.80;62.30;;;;;;5055235;28;20488;-69
2021/04/27 05:59:05;;;;;;;17.65;7.72;;;9.80;62.70;;;;;;5055243;28;20493;-69
2021/04/27 06:01:31;;;;;;;15.70;7.13;;;9.90;62.50;;;;;;5058686;28;20052;-69
2021/04/27 06:03:57;;;;;;;16.38;7.60;;;9.90;62.40;;;;;;5055750;28;20021;-69
2021/04/27 06:06:23;;;;;;;17.67;8.02;;;10.00;62.50;;;;;;5060448;28;20114;-69
2021/04/27 06:08:49;;;;;;;17.80;9.00;;;10.00;62.40;;;;;;5072101;28;20063;-68
2021/04/27 06:11:16;;;;;;;18.13;8.68;;;10.10;62.90;;;;;;5078069;28;20094;-69
2021/04/27 06:13:42;;;;;;;18.38;8.88;;;10.10;62.90;;;;;;5071931;28;20060;-69
2021/04/27 06:16:08;;;;;;;16.27;7.20;;;10.20;62.60;;;;;;5074941;28;20062;-69
2021/04/27 06:18:35;;;;;;;16.23;7.30;;;10.20;62.50;;;;;;5070814;28;20069;-69
2021/04/27 06:21:01;;;;;;;16.52;8.18;;;10.20;62.40;;;;;;5064602;28;20086;-68
2021/04/27 06:23:28;;;;;;;19.45;9.40;;;10.20;62.30;;;;;;5072052;28;20091;-70
2021/04/27 06:25:54;;;;;;;16.92;8.80;;;10.30;62.30;;;;;;5073281;28;20078;-68
2021/04/27 06:28:20;;;;;;;20.65;11.75;;;10.40;62.20;;;;;;5072557;28;20063;-68
2021/04/27 06:30:47;;;;;;;22.08;11.77;;;10.40;62.20;;;;;;5072185;28;20029;-68
2021/04/27 06:33:13;;;;;;;19.92;11.77;;;10.50;62.00;;;;;;5057761;28;20098;-69
2021/04/27 06:35:39;;;;;;;15.38;8.15;;;10.50;61.80;;;;;;5060221;28;20064;-68
2021/04/27 06:38:06;;;;;;;18.20;8.95;;;10.60;61.60;;;;;;5058639;28;20421;-67
2021/04/27 06:40:32;;;;;;;14.48;8.43;;;10.70;61.60;;;;;;5059276;28;20412;-67
2021/04/27 06:42:59;;;;;;;16.35;8.70;;;10.80;61.50;;;;;;5059553;28;20052;-67
2021/04/27 06:45:26;;;;;;;13.95;8.63;;;10.80;61.30;;;;;;5058802;28;20036;-67
2021/04/27 06:47:53;;;;;;;22.50;11.85;;;11.00;61.30;;;;;;5060705;28;20067;-67
2021/04/27 06:50:20;;;;;;;20.60;11.98;;;11.00;61.10;;;;;;5058546;28;20520;-66
2021/04/27 06:52:47;;;;;;;22.02;11.90;;;11.20;60.90;;;;;;5061635;28;20053;-67
2021/04/27 06:55:13;;;;;;;18.73;10.68;;;11.30;60.70;;;;;;5055151;28;20045;-69
2021/04/27 06:57:40;;;;;;;18.45;11.55;;;11.40;60.40;;;;;;5054982;28;20128;-67
2021/04/27 07:00:08;;;;;;;17.73;10.20;;;11.50;60.30;;;;;;5066975;28;20056;-69
2021/04/27 07:02:34;;;;;;;17.70;9.60;;;11.80;60.10;;;;;;5067385;28;20052;-69
2021/04/27 07:05:00;;;;;;;17.33;10.70;;;12.00;59.80;;;;;;5068766;28;20382;-66
2021/04/27 07:07:27;;;;;;;19.25;12.63;;;12.20;59.50;;;;;;5060643;28;20059;-66
2021/04/27 07:09:53;;;;;;;19.65;10.80;;;12.40;59.00;;;;;;5073078;28;20055;-66
2021/04/27 07:12:21;;;;;;;17.55;10.02;;;12.70;58.70;;;;;;5066020;28;20060;-66
2021/04/27 07:14:48;;;;;;;18.00;9.35;;;13.00;58.20;;;;;;5069036;28;20519;-66
2021/04/27 07:17:14;;;;;;;22.45;12.80;;;13.40;57.60;;;;;;5079604;28;20059;-66
2021/04/27 07:19:40;;;;;;;22.17;14.52;;;13.80;56.80;;;;;;5074942;28;20043;-66
2021/04/27 07:22:06;;;;;;;24.60;14.90;;;14.20;56.70;;;;;;5067392;28;20048;-66
2021/04/27 07:24:33;;;;;;;20.27;12.38;;;14.60;54.80;;;;;;5070368;28;20059;-67
2021/04/27 07:26:59;;;;;;;19.27;11.50;;;15.10;53.50;;;;;;5070199;28;20507;-67
2021/04/27 07:29:25;;;;;;;17.00;9.88;;;15.60;52.30;;;;;;5070846;28;20063;-66
2021/04/27 07:31:51;;;;;;;20.23;12.15;;;16.20;51.20;;;;;;5075735;28;20464;-66
2021/04/27 07:34:18;;;;;;;14.68;9.02;;;16.60;49.50;;;;;;5082132;28;20067;-66
2021/04/27 07:36:44;;;;;;;13.93;8.15;;;17.10;48.70;;;;;;5072389;28;20461;-66
2021/04/27 07:39:11;;;;;;;17.38;9.35;;;17.50;47.80;;;;;;5062537;28;20052;-66
2021/04/27 07:41:37;;;;;;;16.05;7.85;;;17.80;46.70;;;;;;5062384;28;20476;-66
2021/04/27 07:44:04;;;;;;;15.13;8.13;;;18.20;45.90;;;;;;5066536;28;20637;-66
2021/04/27 07:46:31;;;;;;;15.60;8.30;;;18.50;45.00;;;;;;5060381;28;20041;-66
2021/04/27 07:48:57;;;;;;;14.43;7.00;;;18.90;44.10;;;;;;5054221;28;20049;-66
2021/04/27 07:51:23;;;;;;;12.95;7.97;;;19.10;43.40;;;;;;5057654;28;20025;-67
2021/04/27 07:53:49;;;;;;;15.50;9.13;;;19.40;42.80;;;;;;5061389;28;20064;-69
2021/04/27 07:56:16;;;;;;;14.35;7.35;;;19.60;42.40;;;;;;5066454;28;20068;-68
2021/04/27 07:58:42;;;;;;;10.05;6.43;;;19.90;41.80;;;;;;5064801;28;20048;-66
2021/04/27 08:01:09;;;;;;;13.35;7.50;;;20.10;41.40;;;;;;5068828;28;20064;-67
2021/04/27 08:03:35;;;;;;;13.82;7.55;;;20.30;40.70;;;;;;5069615;28;20048;-66
2021/04/27 08:06:01;;;;;;;13.93;8.40;;;20.50;40.00;;;;;;5067019;28;20076;-66
2021/04/27 08:08:27;;;;;;;16.67;9.75;;;20.70;39.20;;;;;;5071717;28;20055;-67
2021/04/27 08:10:53;;;;;;;13.82;7.50;;;20.90;37.70;;;;;;5074098;28;20048;-67
2021/04/27 08:13:19;;;;;;;14.90;7.88;;;21.10;37.90;;;;;;5056795;28;20048;-67
2021/04/27 08:15:46;;;;;;;13.30;7.72;;;21.20;37.80;;;;;;5056756;28;20057;-65
2021/04/27 08:18:12;;;;;;;12.95;6.82;;;21.40;37.30;;;;;;5063510;28;20052;-67
2021/04/27 08:20:38;;;;;;;11.27;6.35;;;21.60;37.00;;;;;;5061542;28;20052;-66
2021/04/27 08:23:05;;;;;;;13.80;6.50;;;21.70;36.80;;;;;;5059290;28;20417;-66
2021/04/27 08:25:32;;;;;;;12.30;6.75;;;21.80;36.60;;;;;;5074425;28;20078;-67
2021/04/27 08:27:59;;;;;;;13.90;7.38;;;22.00;36.30;;;;;;5068595;28;20476;-66
2021/04/27 08:30:26;;;;;;;11.02;6.00;;;22.20;36.00;;;;;;5070546;28;20068;-66
2021/04/27 08:32:53;;;;;;;12.50;6.53;;;22.30;35.70;;;;;;5072235;28;20032;-63
2021/04/27 08:35:20;;;;;;;12.50;6.05;;;22.50;35.30;;;;;;5077514;28;20064;-67
2021/04/27 08:37:46;;;;;;;17.95;9.35;;;22.60;35.00;;;;;;5072374;28;20054;-66
2021/04/27 08:40:15;;;;;;;14.57;8.70;;;22.80;34.30;;;;;;5067820;28;20067;-66
2021/04/27 08:42:45;;;;;;;16.77;9.60;;;23.00;34.20;;;;;;5071531;28;20052;-64
2021/04/27 08:45:11;;;;;;;12.48;6.53;;;23.20;33.20;;;;;;5076115;28;20028;-63
2021/04/27 08:47:38;;;;;;;11.68;6.65;;;23.40;33.10;;;;;;5073558;28;20044;-64
2021/04/27 08:50:07;;;;;;;12.23;6.35;;;23.50;32.50;;;;;;5073379;28;20067;-64
2021/04/27 08:52:33;;;;;;;12.82;6.00;;;23.70;32.30;;;;;;5072659;28;20873;-64
2021/04/27 08:54:59;;;;;;;14.90;8.57;;;23.90;32.40;;;;;;5065587;28;20075;-66
2021/04/27 08:57:26;;;;;;;12.05;6.03;;;24.00;31.10;;;;;;5069738;28;20060;-66
2021/04/27 08:59:52;;;;;;;10.40;5.00;;;24.20;30.50;;;;;;5071961;28;20064;-66
2021/04/27 09:02:31;;;;;;;12.32;5.80;;;24.30;30.80;;;;;;5072026;28;20359;-66
2021/04/27 09:04:58;;;;;;;12.82;5.50;;;24.40;30.50;;;;;;5073446;28;20106;-66
2021/04/27 09:07:27;;;;;;;12.90;5.35;;;24.50;30.40;;;;;;5074157;28;20052;-66
2021/04/27 09:09:58;;;;;;;9.30;4.75;;;24.50;30.20;;;;;;5071835;28;20060;-65
2021/04/27 09:12:28;;;;;;;9.95;5.00;;;24.60;30.20;;;;;;5070404;28;20058;-66
2021/04/27 09:14:56;;;;;;;10.87;5.10;;;24.80;30.00;;;;;;5076733;28;20066;-66
2021/04/27 09:17:27;;;;;;;10.15;5.43;;;24.90;29.80;;;;;;5069201;28;20078;-66
2021/04/27 09:19:54;;;;;;;11.52;6.30;;;25.00;29.40;;;;;;5061805;28;20068;-66
2021/04/27 09:22:30;;;;;;;9.95;5.03;;;25.10;28.60;;;;;;5062076;28;20052;-66
2021/04/27 09:25:03;;;;;;;9.38;4.57;;;25.30;28.80;;;;;;5072417;28;20063;-66
2021/04/27 09:27:32;;;;;;;11.43;5.70;;;25.40;28.80;;;;;;5071274;28;20039;-64
2021/04/27 09:30:20;;;;;;;10.10;5.03;;;25.40;28.60;;;;;;5072458;28;20056;-66
2021/04/27 09:33:01;;;;;;;9.00;5.22;;;25.50;28.60;;;;;;5059736;28;20079;-66
2021/04/27 09:35:41;;;;;;;9.77;4.57;;;25.60;28.60;;;;;;5071493;28;20059;-66
2021/04/27 09:38:20;;;;;;;13.48;7.00;;;25.60;28.40;;;;;;5066783;28;20456;-65
2021/04/27 09:40:55;;;;;;;18.75;8.90;;;25.70;27.90;;;;;;5060172;28;20051;-66
2021/04/27 09:43:29;;;;;;;12.38;6.32;;;25.80;27.40;;;;;;5071088;28;20512;-66
2021/04/27 09:45:57;;;;;;;13.45;5.60;;;25.90;27.50;;;;;;5082922;28;20429;-66
2021/04/27 09:48:37;;;;;;;11.80;5.47;;;26.00;27.50;;;;;;5071884;28;20051;-66
2021/04/27 09:51:13;;;;;;;11.73;6.10;;;26.20;27.00;;;;;;5078043;28;20048;-66
2021/04/27 09:54:03;;;;;;;9.45;4.80;;;26.30;26.60;;;;;;5062222;28;20457;-66
2021/04/27 09:56:42;;;;;;;11.95;6.40;;;26.50;26.60;;;;;;5067487;28;20488;-66
2021/04/27 09:59:25;;;;;;;12.45;6.20;;;26.60;25.50;;;;;;5071290;28;20060;-66
2021/04/27 10:01:54;;;;;;;12.40;7.88;;;26.70;25.60;;;;;;5065538;28;20053;-66
2021/04/27 10:04:22;;;;;;;13.05;8.20;;;26.70;23.60;;;;;;5072613;28;20074;-66
2021/04/27 10:06:49;;;;;;;12.68;8.05;;;26.40;23.60;;;;;;5071060;28;20067;-66
2021/04/27 10:09:16;;;;;;;15.10;9.02;;;26.30;24.40;;;;;;5065170;28;20063;-66
2021/04/27 10:11:43;;;;;;;15.82;8.90;;;26.20;24.80;;;;;;5056853;28;20415;-66
2021/04/27 10:14:10;;;;;;;12.48;7.20;;;25.90;24.90;;;;;;5070378;28;20056;-66
2021/04/27 10:16:37;;;;;;;12.10;7.07;;;25.50;25.20;;;;;;5070528;28;20445;-66
2021/04/27 10:19:05;;;;;;;11.65;7.70;;;25.00;25.30;;;;;;5069195;28;20071;-65
2021/04/27 10:21:33;;;;;;;15.02;8.60;;;24.60;25.70;;;;;;5067188;28;20025;-66
2021/04/27 10:24:01;;;;;;;12.23;6.97;;;24.20;26.30;;;;;;5069022;28;20063;-66
2021/04/27 10:26:29;;;;;;;12.68;7.95;;;23.70;26.60;;;;;;5051647;28;20450;-65
2021/04/27 10:28:58;;;;;;;14.07;8.23;;;23.30;27.00;;;;;;5068158;28;20052;-66
2021/04/27 10:31:26;;;;;;;14.43;7.63;;;23.00;27.40;;;;;;5068177;28;20056;-65
2021/04/27 10:34:08;;;;;;;12.13;8.13;;;22.80;27.90;;;;;;5068761;28;20068;-64
2021/04/27 10:36:50;;;;;;;15.30;8.15;;;22.60;27.80;;;;;;5064567;28;20036;-65
2021/04/27 10:39:39;;;;;;;12.80;7.82;;;22.40;28.00;;;;;;5060759;28;20052;-65
2021/04/27 10:42:22;;;;;;;13.90;8.07;;;22.30;28.40;;;;;;5060597;28;20090;-65
2021/04/27 10:44:59;;;;;;;12.30;7.80;;;22.20;28.60;;;;;;5069369;28;20052;-65
2021/04/27 10:47:26;;;;;;;13.85;7.40;;;22.10;28.60;;;;;;5068358;28;20441;-64
2021/04/27 10:49:55;;;;;;;18.08;11.43;;;22.10;28.90;;;;;;5067701;28;20056;-64
2021/04/27 10:52:35;;;;;;;16.23;10.23;;;22.00;29.10;;;;;;5071517;28;20052;-65
2021/04/27 10:55:28;;;;;;;15.52;10.20;;;21.90;29.20;;;;;;5059886;28;20460;-65
2021/04/27 10:57:59;;;;;;;21.77;13.68;;;21.70;29.20;;;;;;5071612;28;20064;-65
2021/04/27 11:00:39;;;;;;;17.95;11.20;;;21.70;29.50;;;;;;5071550;28;20044;-65
2021/04/27 11:03:27;;;;;;;15.23;9.57;;;21.50;29.30;;;;;;5065445;28;20056;-65
2021/04/27 11:05:59;;;;;;;14.43;8.80;;;21.40;29.10;;;;;;5064882;28;20068;-64
2021/04/27 11:08:45;;;;;;;14.77;9.98;;;21.30;28.90;;;;;;5069199;28;20045;-65
2021/04/27 11:11:23;;;;;;;19.40;13.02;;;21.20;29.50;;;;;;5060947;28;20500;-64
2021/04/27 11:13:51;;;;;;;19.25;11.40;;;21.10;29.30;;;;;;5065303;28;20120;-65
2021/04/27 11:16:26;;;;;;;16.48;10.38;;;21.00;28.70;;;;;;5078560;28;20060;-65
2021/04/27 11:19:11;;;;;;;14.30;9.80;;;20.90;28.70;;;;;;5068655;28;20048;-64
2021/04/27 11:21:38;;;;;;;15.25;9.38;;;20.80;28.70;;;;;;5067100;28;20090;-65
2021/04/27 11:24:09;;;;;;;13.07;8.23;;;20.60;28.90;;;;;;5066716;28;20055;-65
2021/04/27 11:26:35;;;;;;;12.45;7.68;;;20.50;29.30;;;;;;5068279;28;20103;-64
2021/04/27 11:29:21;;;;;;;13.23;7.55;;;20.60;29.20;;;;;;5058002;28;20090;-65
2021/04/27 11:32:00;;;;;;;14.05;8.43;;;20.60;28.80;;;;;;5057434;28;20114;-67
2021/04/27 11:34:27;;;;;;;13.80;8.10;;;20.70;28.10;;;;;;5059295;28;20056;-65
2021/04/27 11:36:54;;;;;;;13.27;8.15;;;20.60;27.20;;;;;;5059400;28;20091;-65
2021/04/27 11:39:26;;;;;;;12.52;8.82;;;20.60;27.90;;;;;;5061546;28;20060;-65
2021/04/27 11:42:01;;;;;;;12.15;7.60;;;20.60;28.80;;;;;;5057996;28;20056;-65
2021/04/27 11:44:40;;;;;;;14.02;9.23;;;20.70;29.00;;;;;;5063182;28;20464;-65
2021/04/27 11:47:17;;;;;;;13.90;7.93;;;20.80;27.90;;;;;;5057367;28;20082;-65
2021/04/27 11:49:57;;;;;;;11.50;7.60;;;20.70;28.10;;;;;;5063845;28;20152;-65
2021/04/27 11:52:45;;;;;;;12.57;7.20;;;20.70;28.90;;;;;;5067748;28;20064;-65
2021/04/27 11:55:19;;;;;;;10.70;6.40;;;20.70;28.60;;;;;;5067858;28;20065;-65
2021/04/27 11:57:47;;;;;;;13.07;7.43;;;20.90;28.40;;;;;;5069014;28;20056;-65
2021/04/27 12:00:14;;;;;;;11.50;8.05;;;20.90;28.30;;;;;;5062547;28;20453;-65
2021/04/27 12:02:40;;;;;;;14.02;8.45;;;20.90;28.20;;;;;;5062163;28;20456;-65
2021/04/27 12:05:07;;;;;;;12.70;7.70;;;20.70;27.00;;;;;;5066979;28;20056;-65
2021/04/27 12:07:33;;;;;;;12.10;7.43;;;20.50;27.30;;;;;;5060867;28;20068;-65
2021/04/27 12:10:00;;;;;;;13.85;9.77;;;20.40;28.10;;;;;;5076161;28;20507;-65
2021/04/27 12:12:27;;;;;;;17.50;9.40;;;20.30;28.30;;;;;;5071816;28;20017;-65
2021/04/27 12:15:03;;;;;;;15.68;9.20;;;20.20;28.70;;;;;;5074267;28;20060;-65
2021/04/27 12:17:34;;;;;;;14.27;8.60;;;20.10;29.00;;;;;;5072029;28;20068;-65
2021/04/27 12:20:19;;;;;;;18.17;12.70;;;20.10;29.30;;;;;;5073333;28;20060;-65
2021/04/27 12:22:51;;;;;;;13.65;8.88;;;20.10;28.30;;;;;;5066639;28;20072;-65
2021/04/27 12:25:28;;;;;;;12.38;7.38;;;20.10;28.20;;;;;;5065842;28;20056;-65
2021/04/27 12:28:05;;;;;;;13.82;8.70;;;20.10;28.40;;;;;;5065062;28;20535;-65
2021/04/27 12:30:34;;;;;;;13.75;8.60;;;20.00;28.80;;;;;;5075411;28;20455;-65
2021/04/27 12:33:05;;;;;;;14.48;9.40;;;19.90;29.10;;;;;;5070491;28;20531;-65
2021/04/27 12:35:34;;;;;;;14.32;7.22;;;19.80;29.00;;;;;;5063688;28;20067;-65
2021/04/27 12:38:11;;;;;;;13.13;8.30;;;19.70;29.60;;;;;;5069448;28;20098;-65
2021/04/27 12:40:53;;;;;;;12.85;8.20;;;19.70;31.10;;;;;;5071090;28;20158;-64
2021/04/27 12:43:37;;;;;;;13.25;8.52;;;19.70;30.00;;;;;;5062466;28;20053;-65
2021/04/27 12:46:06;;;;;;;14.68;8.57;;;19.70;29.50;;;;;;5061387;28;20457;-65